Terminal Aerodrome Forecast
Issued by NWS Topeka, KS

Home | Current Version | Previous Version | Text Only | Print | Product List | Glossary Off
Versions: 1 2 3 4 5 6 7 8 9 10 11 12 13 14

000
FTUS43 KTOP 230419 AAB
TAFTOP
TAF AMD
KTOP 230419Z 2304/2324 06005KT P6SM VCTS BKN100CB
      TEMPO 2304/2306 5SM TSRA BKN050CB
     FM230800 07003KT P6SM SCT020 BKN090=

USA.gov is the U.S. government's official web portal to all federal, state and local government web resources and services.